Time;durP1;ratioP1;P1;durP2;ratioP2;P2;SDS_P1;SDS_P2;PMS_P1;PMS_P2;Temp;Humidity;BMP_temperature;BMP_pressure;BME280_temperature;BME280_humidity;BME280_pressure;Samples;Min_cycle;Max_cycle;Signal;HPM_P1;HPM_P2
2023/02/06 00:01:45;;;;;;;20.87;9.67;;;2.30;99.90;;;;;;5068646;27;20870;-60
2023/02/06 00:04:14;;;;;;;18.47;10.90;;;2.40;99.90;;;;;;5064265;28;20845;-60
2023/02/06 00:06:42;;;;;;;18.23;9.07;;;2.20;99.90;;;;;;5071847;28;20477;-59
2023/02/06 00:09:11;;;;;;;17.27;9.60;;;2.40;99.90;;;;;;5049934;28;20986;-60
2023/02/06 00:11:39;;;;;;;22.17;11.20;;;2.40;99.90;;;;;;5049677;28;20472;-59
2023/02/06 00:14:07;;;;;;;13.73;8.03;;;2.30;99.90;;;;;;5049733;28;20938;-60
2023/02/06 00:16:36;;;;;;;18.37;8.83;;;2.30;99.90;;;;;;5049663;28;20473;-60
2023/02/06 00:19:05;;;;;;;16.50;8.90;;;2.20;99.90;;;;;;5068601;28;20536;-60
2023/02/06 00:21:33;;;;;;;13.33;8.43;;;2.10;99.90;;;;;;5069425;28;20470;-60
2023/02/06 00:24:02;;;;;;;14.20;8.40;;;2.20;99.90;;;;;;5069504;28;20992;-59
2023/02/06 00:26:31;;;;;;;23.57;9.03;;;2.20;99.90;;;;;;5069084;28;20451;-60
2023/02/06 00:28:59;;;;;;;19.23;8.30;;;2.40;99.90;;;;;;5069210;28;20461;-59
2023/02/06 00:31:27;;;;;;;18.60;9.17;;;2.30;99.90;;;;;;5066712;28;20839;-60
2023/02/06 00:33:56;;;;;;;13.67;7.83;;;2.10;99.90;;;;;;5067539;28;20490;-60
2023/02/06 00:36:26;;;;;;;15.83;8.73;;;2.20;99.90;;;;;;5069775;28;20827;-60
2023/02/06 00:38:54;;;;;;;11.47;6.57;;;1.90;99.90;;;;;;5067522;28;20480;-60
2023/02/06 00:41:22;;;;;;;13.63;7.40;;;1.70;99.90;;;;;;5068892;28;20450;-60
2023/02/06 00:43:51;;;;;;;13.37;7.60;;;1.40;99.90;;;;;;5067388;28;20467;-59
2023/02/06 00:46:20;;;;;;;13.97;6.40;;;1.30;99.90;;;;;;5068517;28;20803;-60
2023/02/06 00:48:48;;;;;;;12.67;6.10;;;1.10;99.90;;;;;;5068345;28;20458;-60
2023/02/06 00:51:17;;;;;;;16.30;6.90;;;1.50;99.90;;;;;;5068829;28;21001;-59
2023/02/06 00:53:45;;;;;;;13.77;6.63;;;1.90;99.90;;;;;;5065407;28;20490;-60
2023/02/06 00:56:16;;;;;;;17.53;7.07;;;2.10;99.90;;;;;;5055439;28;20977;-59
2023/02/06 00:58:46;;;;;;;13.40;6.97;;;2.20;99.90;;;;;;5053983;28;20605;-60
2023/02/06 01:01:14;;;;;;;16.30;7.70;;;2.30;99.90;;;;;;5050090;28;20534;-60
2023/02/06 01:03:42;;;;;;;17.67;6.63;;;1.80;99.90;;;;;;5049966;28;20462;-59
2023/02/06 01:06:10;;;;;;;19.27;6.80;;;1.50;99.90;;;;;;5055479;28;20463;-60
2023/02/06 01:08:39;;;;;;;12.50;6.33;;;1.80;99.90;;;;;;5054962;28;20829;-60
2023/02/06 01:11:11;;;;;;;12.77;6.77;;;1.80;99.90;;;;;;5055110;28;20443;-59
2023/02/06 01:13:39;;;;;;;14.77;6.90;;;2.00;99.90;;;;;;5054872;28;20970;-60
2023/02/06 01:16:08;;;;;;;14.83;6.57;;;2.10;99.90;;;;;;5055245;28;20467;-59
2023/02/06 01:18:37;;;;;;;16.83;7.13;;;2.10;99.90;;;;;;5054732;28;20467;-60
2023/02/06 01:21:08;;;;;;;12.03;6.30;;;1.60;99.90;;;;;;5054803;28;20465;-59
2023/02/06 01:23:38;;;;;;;12.37;6.37;;;1.20;99.90;;;;;;5054778;28;20826;-59
2023/02/06 01:26:09;;;;;;;13.87;6.60;;;1.20;99.90;;;;;;5054865;28;20458;-59
2023/02/06 01:28:37;;;;;;;13.33;6.00;;;1.40;99.90;;;;;;5053461;28;20463;-59
2023/02/06 01:31:11;;;;;;;16.27;6.33;;;1.60;99.90;;;;;;5053091;28;20845;-59
2023/02/06 01:33:39;;;;;;;18.17;7.17;;;1.60;99.90;;;;;;5053005;28;20467;-59
2023/02/06 01:36:09;;;;;;;16.37;6.23;;;1.50;99.90;;;;;;5055461;28;20509;-59
2023/02/06 01:38:37;;;;;;;14.30;5.43;;;1.40;99.90;;;;;;5054386;28;20485;-60
2023/02/06 01:41:08;;;;;;;9.63;4.93;;;1.10;99.90;;;;;;5052975;28;20473;-59
2023/02/06 01:43:38;;;;;;;11.50;5.03;;;1.00;99.90;;;;;;5054218;28;20470;-60
2023/02/06 01:46:07;;;;;;;13.43;5.60;;;1.60;99.90;;;;;;5053221;28;20570;-59
2023/02/06 01:48:38;;;;;;;13.07;5.07;;;1.80;99.90;;;;;;5046291;28;20951;-59
2023/02/06 01:51:08;;;;;;;13.77;5.93;;;1.70;99.90;;;;;;5054230;28;20473;-59
2023/02/06 01:53:37;;;;;;;10.97;5.17;;;1.70;99.90;;;;;;5054111;28;20482;-59
2023/02/06 01:56:08;;;;;;;11.23;5.33;;;1.60;99.90;;;;;;5054303;28;20455;-59
2023/02/06 01:58:41;;;;;;;9.47;5.07;;;1.40;99.90;;;;;;5052872;28;20474;-60
2023/02/06 02:01:10;;;;;;;12.27;5.77;;;1.10;99.90;;;;;;5051607;28;21043;-60
2023/02/06 02:03:43;;;;;;;15.13;5.00;;;0.80;99.90;;;;;;5054096;28;20458;-59
2023/02/06 02:06:14;;;;;;;15.03;5.10;;;1.00;99.90;;;;;;5055225;28;20454;-59
2023/02/06 02:08:45;;;;;;;12.53;5.00;;;0.70;99.90;;;;;;5053801;28;20459;-59
2023/02/06 02:11:18;;;;;;;14.83;4.57;;;0.50;99.90;;;;;;5052717;28;20545;-59
2023/02/06 02:13:47;;;;;;;12.03;4.53;;;0.60;99.90;;;;;;5040619;28;20877;-59
2023/02/06 02:16:23;;;;;;;9.20;4.90;;;1.10;99.90;;;;;;5050490;28;20454;-59
2023/02/06 02:19:05;;;;;;;9.37;4.10;;;1.30;99.90;;;;;;5046136;28;20517;-60
2023/02/06 02:22:05;;;;;;;11.83;4.90;;;1.20;99.90;;;;;;5053615;28;20492;-60
2023/02/06 02:24:53;;;;;;;12.33;4.00;;;0.70;99.90;;;;;;5053581;28;20463;-59
2023/02/06 02:27:42;;;;;;;11.07;3.60;;;0.60;99.90;;;;;;5053678;28;20460;-59
2023/02/06 02:30:31;;;;;;;9.43;3.77;;;1.20;99.90;;;;;;5053246;28;20553;-60
2023/02/06 02:33:24;;;;;;;12.83;4.10;;;0.80;99.90;;;;;;5035007;28;20878;-59
2023/02/06 02:36:01;;;;;;;13.07;4.43;;;1.30;99.90;;;;;;5054353;28;20590;-59
2023/02/06 02:38:41;;;;;;;10.67;3.83;;;0.90;99.90;;;;;;5052009;28;20834;-59
2023/02/06 02:41:18;;;;;;;10.10;3.30;;;0.60;99.90;;;;;;5052227;28;20560;-59
2023/02/06 02:43:54;;;;;;;11.60;3.60;;;1.30;99.90;;;;;;5051852;28;20540;-60
2023/02/06 02:46:28;;;;;;;9.13;4.03;;;1.40;99.90;;;;;;5051808;28;20558;-59
2023/02/06 02:49:02;;;;;;;10.97;4.03;;;1.60;99.90;;;;;;5053375;28;20490;-59
2023/02/06 02:51:33;;;;;;;13.07;4.10;;;1.40;99.90;;;;;;5053018;28;20465;-59
2023/02/06 02:54:01;;;;;;;12.43;4.40;;;1.00;99.90;;;;;;5051830;28;21104;-59
2023/02/06 02:56:30;;;;;;;11.27;3.60;;;0.60;99.90;;;;;;5051641;28;20498;-59
2023/02/06 02:59:01;;;;;;;12.57;3.70;;;0.40;99.90;;;;;;5051881;28;21090;-60
2023/02/06 03:01:32;;;;;;;11.27;3.60;;;0.30;99.90;;;;;;5049954;28;20471;-60
2023/02/06 03:04:08;;;;;;;10.50;4.07;;;0.90;99.90;;;;;;5051551;28;21012;-59
2023/02/06 03:07:03;;;;;;;8.97;4.00;;;1.20;99.90;;;;;;5049408;28;20470;-59
2023/02/06 03:09:41;;;;;;;10.17;4.37;;;1.40;99.90;;;;;;5031552;28;20826;-59
2023/02/06 03:12:20;;;;;;;11.73;3.93;;;1.40;99.90;;;;;;5031735;28;20469;-59
2023/02/06 03:14:55;;;;;;;12.13;4.07;;;1.50;99.90;;;;;;5031560;28;20482;-60
2023/02/06 03:17:33;;;;;;;12.17;3.97;;;1.50;99.90;;;;;;5036554;28;20611;-59
2023/02/06 03:20:03;;;;;;;15.70;3.90;;;1.50;99.90;;;;;;5052675;28;20465;-59
2023/02/06 03:22:35;;;;;;;10.23;3.50;;;1.50;99.90;;;;;;5051342;28;20466;-59
2023/02/06 03:25:07;;;;;;;13.93;4.20;;;1.50;99.90;;;;;;5051145;28;20550;-60
2023/02/06 03:27:39;;;;;;;14.07;4.77;;;1.50;99.90;;;;;;5032951;28;20832;-59
2023/02/06 03:30:10;;;;;;;17.00;5.23;;;1.40;99.90;;;;;;5033051;28;20468;-59
2023/02/06 03:32:42;;;;;;;16.63;4.73;;;1.40;99.90;;;;;;5048516;28;20474;-59
2023/02/06 03:35:15;;;;;;;18.30;4.97;;;1.50;99.90;;;;;;5052604;28;21007;-59
2023/02/06 03:37:46;;;;;;;15.20;4.90;;;1.40;99.90;;;;;;5052336;28;20454;-59
2023/02/06 03:40:15;;;;;;;21.00;4.97;;;1.00;99.90;;;;;;5052828;28;20470;-59
2023/02/06 03:42:48;;;;;;;13.27;5.03;;;0.70;99.90;;;;;;5052541;28;20545;-59
2023/02/06 03:45:21;;;;;;;16.37;4.50;;;0.90;99.90;;;;;;5052834;28;20467;-59
2023/02/06 03:47:52;;;;;;;17.50;5.23;;;1.00;99.90;;;;;;5052552;28;20990;-60
2023/02/06 03:50:21;;;;;;;14.13;5.03;;;1.20;99.90;;;;;;5052342;28;20463;-59
2023/02/06 03:52:51;;;;;;;15.23;4.90;;;1.40;99.90;;;;;;5052263;28;20478;-59
2023/02/06 03:55:22;;;;;;;19.17;5.47;;;1.60;99.90;;;;;;5051747;28;20482;-60
2023/02/06 03:57:53;;;;;;;14.03;4.97;;;1.50;99.90;;;;;;5052598;28;20466;-59
2023/02/06 04:00:22;;;;;;;15.10;4.77;;;1.50;99.90;;;;;;5052023;28;20471;-59
2023/02/06 04:02:52;;;;;;;19.83;5.57;;;1.40;99.90;;;;;;5052232;28;20869;-59
2023/02/06 04:05:20;;;;;;;12.83;4.27;;;1.30;99.90;;;;;;5054477;28;20455;-60
2023/02/06 04:07:48;;;;;;;14.23;5.00;;;1.40;99.90;;;;;;5051881;28;20472;-59
2023/02/06 04:10:18;;;;;;;16.40;4.80;;;1.50;99.90;;;;;;5052308;28;20792;-60
2023/02/06 04:12:46;;;;;;;13.97;4.43;;;1.40;99.90;;;;;;5050870;28;20463;-60
2023/02/06 04:15:14;;;;;;;16.50;5.37;;;1.50;99.90;;;;;;5052159;28;20495;-59
2023/02/06 04:17:42;;;;;;;13.77;4.87;;;1.30;99.90;;;;;;5052260;28;20477;-59
2023/02/06 04:20:26;;;;;;;17.90;5.07;;;0.70;99.90;;;;;;5046378;28;20977;-57
2023/02/06 04:22:54;;;;;;;11.67;4.07;;;0.30;99.90;;;;;;5052468;28;20989;-59
2023/02/06 04:25:24;;;;;;;19.13;4.37;;;0.30;99.90;;;;;;5058550;28;20511;-59
2023/02/06 04:27:52;;;;;;;13.30;4.17;;;0.60;99.90;;;;;;5072367;28;20850;-60
2023/02/06 04:30:20;;;;;;;16.97;4.40;;;0.50;99.90;;;;;;5074552;28;20826;-59
2023/02/06 04:32:48;;;;;;;14.37;4.80;;;0.80;99.90;;;;;;5057826;28;20473;-59
2023/02/06 04:35:16;;;;;;;14.50;4.30;;;1.20;99.90;;;;;;5057851;28;20490;-60
2023/02/06 04:37:44;;;;;;;17.30;4.37;;;1.40;99.90;;;;;;5055552;28;20473;-60
2023/02/06 04:40:13;;;;;;;13.20;3.97;;;1.10;99.90;;;;;;5055973;28;20985;-59
2023/02/06 04:42:42;;;;;;;10.37;3.63;;;1.00;99.90;;;;;;5055539;28;20479;-59
2023/02/06 04:45:10;;;;;;;15.83;4.10;;;0.70;99.90;;;;;;5055615;28;20955;-59
2023/02/06 04:47:38;;;;;;;13.03;4.47;;;0.70;99.90;;;;;;5055637;28;20466;-60
2023/02/06 04:50:09;;;;;;;14.57;4.40;;;0.70;99.90;;;;;;5055374;28;20473;-60
2023/02/06 04:52:37;;;;;;;15.90;4.07;;;0.60;99.90;;;;;;5055412;28;20468;-59
2023/02/06 04:55:05;;;;;;;15.37;4.40;;;0.80;99.90;;;;;;5055331;28;20474;-59
2023/02/06 04:57:33;;;;;;;19.57;4.30;;;0.50;99.90;;;;;;5057511;28;20978;-59
2023/02/06 05:00:04;;;;;;;16.13;3.67;;;0.30;99.90;;;;;;5055682;28;20474;-59
2023/02/06 05:02:36;;;;;;;11.57;3.23;;;0.30;99.90;;;;;;5054597;28;20822;-59
2023/02/06 05:05:04;;;;;;;8.10;3.00;;;0.20;99.90;;;;;;5057574;28;20830;-59
2023/02/06 05:07:32;;;;;;;16.23;3.93;;;0.50;99.90;;;;;;5055244;28;20474;-59
2023/02/06 05:10:01;;;;;;;17.97;4.10;;;0.80;99.90;;;;;;5049432;28;20826;-59
2023/02/06 05:12:29;;;;;;;9.37;3.37;;;0.50;99.90;;;;;;5035356;28;20854;-56
2023/02/06 05:14:57;;;;;;;15.40;4.20;;;0.30;99.90;;;;;;5035100;28;20474;-58
2023/02/06 05:17:27;;;;;;;14.57;3.90;;;0.20;99.90;;;;;;5035037;28;20467;-59
2023/02/06 05:19:55;;;;;;;17.73;4.80;;;0.20;99.90;;;;;;5035291;28;20870;-59
2023/02/06 05:22:25;;;;;;;14.83;4.20;;;0.20;99.90;;;;;;5035263;28;20979;-60
2023/02/06 05:24:53;;;;;;;12.90;4.40;;;0.20;99.90;;;;;;5050591;28;20815;-59
2023/02/06 05:27:21;;;;;;;14.23;4.47;;;0.20;99.90;;;;;;5055059;28;20470;-59
2023/02/06 05:29:49;;;;;;;18.80;4.17;;;0.20;99.90;;;;;;5055175;28;20795;-60
2023/02/06 05:32:18;;;;;;;12.17;3.60;;;0.20;99.90;;;;;;5054351;28;20528;-59
2023/02/06 05:34:47;;;;;;;17.67;4.60;;;0.70;99.90;;;;;;5056565;28;20513;-60
2023/02/06 05:37:15;;;;;;;17.93;5.13;;;0.90;99.90;;;;;;5054808;28;20486;-59
2023/02/06 05:39:44;;;;;;;19.80;4.70;;;0.90;99.90;;;;;;5054337;28;20455;-59
2023/02/06 05:42:12;;;;;;;14.93;4.47;;;0.80;99.90;;;;;;5054654;28;20486;-59
2023/02/06 05:44:40;;;;;;;14.27;4.73;;;0.50;99.90;;;;;;5044756;28;20471;-60
2023/02/06 05:47:08;;;;;;;13.50;4.47;;;0.50;99.90;;;;;;5034548;28;20823;-59
2023/02/06 05:49:36;;;;;;;25.97;4.93;;;0.40;99.90;;;;;;5034363;28;20459;-59
2023/02/06 05:52:05;;;;;;;14.33;4.67;;;0.40;99.90;;;;;;5053819;28;20475;-59
2023/02/06 05:54:33;;;;;;;20.70;6.40;;;0.30;99.90;;;;;;5054288;28;20980;-60
2023/02/06 05:57:02;;;;;;;22.10;6.67;;;0.30;99.90;;;;;;5054387;28;20490;-60
2023/02/06 05:59:30;;;;;;;20.37;7.07;;;0.30;99.90;;;;;;5054008;28;20454;-59
2023/02/06 06:01:59;;;;;;;17.97;7.57;;;0.30;99.90;;;;;;5051226;28;20474;-59
2023/02/06 06:04:27;;;;;;;21.67;7.10;;;0.40;99.90;;;;;;5045872;28;20482;-60
2023/02/06 06:06:55;;;;;;;19.10;6.80;;;0.40;99.90;;;;;;5032464;28;21010;-60
2023/02/06 06:09:25;;;;;;;20.20;6.60;;;0.40;99.90;;;;;;5034393;28;20468;-59
2023/02/06 06:11:53;;;;;;;22.73;6.93;;;1.30;99.90;;;;;;5034140;28;20463;-59
2023/02/06 06:14:21;;;;;;;16.30;5.40;;;1.20;99.90;;;;;;5034297;28;20464;-59
2023/02/06 06:16:49;;;;;;;19.10;5.97;;;1.30;99.90;;;;;;5033652;28;20503;-59
2023/02/06 06:19:17;;;;;;;19.07;6.13;;;1.20;99.90;;;;;;5033639;28;20471;-60
2023/02/06 06:21:45;;;;;;;17.87;6.20;;;1.60;99.90;;;;;;5032801;28;20482;-60
2023/02/06 06:24:13;;;;;;;19.93;6.47;;;1.70;99.90;;;;;;5026426;28;20896;-59
2023/02/06 06:26:42;;;;;;;18.30;6.67;;;1.30;99.90;;;;;;5045514;28;20474;-60
2023/02/06 06:29:10;;;;;;;19.47;6.67;;;1.30;99.90;;;;;;5039449;28;20464;-60
2023/02/06 06:31:38;;;;;;;17.23;6.40;;;0.90;99.90;;;;;;5033361;28;20482;-60
2023/02/06 06:34:06;;;;;;;17.60;6.60;;;0.80;99.90;;;;;;5042534;28;20475;-59
2023/02/06 06:36:34;;;;;;;23.47;6.80;;;0.70;99.90;;;;;;5034357;28;20487;-60
2023/02/06 06:39:03;;;;;;;22.70;7.67;;;0.70;99.90;;;;;;5032615;28;20808;-60
2023/02/06 06:41:31;;;;;;;24.20;9.30;;;0.70;99.90;;;;;;5031474;28;20456;-60
2023/02/06 06:44:01;;;;;;;22.97;7.77;;;0.70;99.90;;;;;;5027191;28;20511;-59
2023/02/06 06:46:29;;;;;;;24.93;9.20;;;1.20;99.90;;;;;;5022942;28;20512;-60
2023/02/06 06:48:57;;;;;;;23.13;8.93;;;1.70;99.90;;;;;;5015766;28;21010;-59
2023/02/06 06:51:28;;;;;;;31.67;11.07;;;2.20;99.90;;;;;;5027150;28;20468;-60
2023/02/06 06:53:56;;;;;;;25.83;9.50;;;2.70;99.90;;;;;;5024012;28;20460;-60
2023/02/06 06:56:24;;;;;;;29.23;9.13;;;2.60;99.90;;;;;;5020836;28;20492;-60
2023/02/06 06:58:53;;;;;;;31.10;10.27;;;2.70;99.90;;;;;;5032575;28;20499;-57
2023/02/06 07:01:22;;;;;;;22.60;9.57;;;2.70;99.90;;;;;;5030909;28;21007;-60
2023/02/06 07:03:50;;;;;;;21.83;9.33;;;2.30;99.90;;;;;;5027957;28;20972;-60
2023/02/06 07:06:19;;;;;;;22.27;9.00;;;2.30;99.90;;;;;;5026123;28;20812;-60
2023/02/06 07:08:47;;;;;;;22.63;7.93;;;2.10;99.90;;;;;;5021306;28;20808;-60
2023/02/06 07:11:17;;;;;;;24.60;8.73;;;2.00;99.90;;;;;;5025194;28;20464;-60
2023/02/06 07:13:45;;;;;;;25.57;8.93;;;2.10;99.90;;;;;;5029609;28;20474;-60
2023/02/06 07:16:14;;;;;;;23.23;9.90;;;2.10;99.90;;;;;;5031671;28;20480;-57
2023/02/06 07:18:43;;;;;;;27.70;9.83;;;2.30;99.90;;;;;;5026529;28;20797;-60
2023/02/06 07:21:14;;;;;;;22.70;8.47;;;2.00;99.90;;;;;;5032905;28;20474;-60
2023/02/06 07:23:42;;;;;;;17.70;8.57;;;1.60;99.90;;;;;;5026788;28;21041;-60
2023/02/06 07:26:11;;;;;;;20.70;8.73;;;1.40;99.90;;;;;;5021548;28;20527;-60
2023/02/06 07:28:39;;;;;;;22.93;9.30;;;1.30;99.90;;;;;;5016913;28;20523;-60
2023/02/06 07:31:08;;;;;;;29.33;10.90;;;1.70;99.90;;;;;;5029954;28;20480;-60
2023/02/06 07:33:36;;;;;;;24.47;9.47;;;1.90;99.90;;;;;;5026242;28;20986;-60
2023/02/06 07:36:10;;;;;;;19.60;8.40;;;1.90;99.90;;;;;;5032322;28;20805;-60
2023/02/06 07:38:38;;;;;;;27.50;11.23;;;1.70;99.90;;;;;;5025997;28;20538;-60
2023/02/06 07:41:06;;;;;;;28.73;11.03;;;1.80;99.90;;;;;;5023645;28;20464;-60
2023/02/06 07:43:34;;;;;;;26.17;11.07;;;2.00;99.90;;;;;;5028783;28;20982;-60
2023/02/06 07:46:04;;;;;;;24.13;10.33;;;2.10;99.90;;;;;;5033370;28;20529;-60
2023/02/06 07:48:32;;;;;;;21.27;9.90;;;2.00;99.90;;;;;;5028658;28;20469;-60
2023/02/06 07:51:07;;;;;;;23.70;11.17;;;2.00;99.90;;;;;;5033275;28;20463;-60
2023/02/06 07:53:36;;;;;;;23.30;9.00;;;2.00;99.90;;;;;;5024829;28;20467;-60
2023/02/06 07:56:10;;;;;;;22.83;9.47;;;2.10;99.90;;;;;;5024811;28;20464;-60
2023/02/06 07:58:38;;;;;;;19.23;8.23;;;2.10;99.90;;;;;;5040327;28;20464;-60
2023/02/06 08:01:06;;;;;;;23.23;8.90;;;2.30;99.90;;;;;;5028280;28;21013;-61
2023/02/06 08:03:35;;;;;;;21.57;8.90;;;2.30;99.90;;;;;;5028994;28;20463;-60
2023/02/06 08:06:09;;;;;;;27.57;9.97;;;2.10;99.90;;;;;;5044017;28;20468;-60
2023/02/06 08:08:37;;;;;;;19.77;8.93;;;1.90;99.90;;;;;;5041068;28;20473;-60
2023/02/06 08:11:07;;;;;;;20.47;8.00;;;1.70;99.90;;;;;;5032049;28;20903;-60
2023/02/06 08:13:35;;;;;;;30.43;9.87;;;1.90;99.90;;;;;;5040275;28;20455;-60
2023/02/06 08:16:05;;;;;;;30.27;11.10;;;2.30;99.90;;;;;;5036162;28;20531;-60
2023/02/06 08:18:34;;;;;;;26.30;10.43;;;2.60;99.90;;;;;;5035112;28;20812;-60
2023/02/06 08:21:03;;;;;;;28.33;10.43;;;2.50;99.90;;;;;;5032493;28;21001;-60
2023/02/06 08:23:32;;;;;;;33.40;10.00;;;2.20;99.90;;;;;;5030198;28;20455;-60
2023/02/06 08:26:04;;;;;;;34.60;11.20;;;2.30;99.90;;;;;;5029052;28;20467;-60
2023/02/06 08:28:33;;;;;;;21.90;10.03;;;2.60;99.90;;;;;;5033065;28;20464;-60
2023/02/06 08:31:08;;;;;;;33.10;10.60;;;2.30;99.90;;;;;;5033107;28;20482;-60
2023/02/06 08:33:36;;;;;;;38.10;11.93;;;2.50;99.90;;;;;;5024099;28;20461;-60
2023/02/06 08:36:05;;;;;;;38.47;12.17;;;2.70;99.90;;;;;;5025543;28;20546;-58
2023/02/06 08:38:35;;;;;;;28.50;10.43;;;2.90;99.90;;;;;;5028551;28;20849;-57
2023/02/06 08:41:04;;;;;;;29.13;9.23;;;2.70;99.90;;;;;;5038220;28;20468;-58
2023/02/06 08:43:32;;;;;;;41.57;10.87;;;2.70;99.90;;;;;;5036669;28;21009;-60
2023/02/06 08:46:00;;;;;;;40.17;11.37;;;2.90;99.90;;;;;;5032074;28;20468;-60
2023/02/06 08:48:28;;;;;;;36.23;10.00;;;3.00;99.90;;;;;;5035656;28;20488;-60
2023/02/06 08:51:03;;;;;;;40.00;11.57;;;3.10;99.90;;;;;;5040358;28;20966;-60
2023/02/06 08:53:31;;;;;;;38.53;10.73;;;3.40;99.90;;;;;;5045119;28;20974;-59
2023/02/06 08:56:02;;;;;;;36.77;11.47;;;3.20;99.90;;;;;;5046642;28;20460;-60
2023/02/06 08:58:30;;;;;;;31.07;10.90;;;3.20;99.90;;;;;;5026717;28;20497;-60
2023/02/06 09:00:59;;;;;;;27.17;9.87;;;2.90;99.90;;;;;;5033014;28;20477;-60
2023/02/06 09:03:27;;;;;;;32.43;10.13;;;2.70;99.90;;;;;;5033447;28;20467;-60
2023/02/06 09:06:00;;;;;;;34.17;11.20;;;2.60;99.90;;;;;;5034328;28;20458;-61
2023/02/06 09:08:37;;;;;;;24.10;9.47;;;2.50;99.90;;;;;;5029090;28;20491;-59
2023/02/06 09:11:07;;;;;;;23.63;10.50;;;2.50;99.90;;;;;;5028019;28;20452;-60
2023/02/06 09:13:36;;;;;;;24.93;10.13;;;2.90;99.90;;;;;;5031517;28;20472;-60
2023/02/06 09:16:06;;;;;;;29.07;11.43;;;3.00;99.90;;;;;;5031014;28;20858;-60
2023/02/06 09:18:35;;;;;;;23.43;10.70;;;3.00;99.90;;;;;;5029370;28;20525;-61
2023/02/06 09:21:06;;;;;;;23.97;10.17;;;2.90;99.90;;;;;;5028705;28;20524;-60
2023/02/06 09:23:34;;;;;;;28.43;12.27;;;3.00;99.90;;;;;;5030046;28;20474;-60
2023/02/06 09:26:02;;;;;;;25.53;11.03;;;3.40;99.90;;;;;;5019243;28;20481;-60
2023/02/06 09:28:32;;;;;;;23.43;11.03;;;3.40;99.90;;;;;;5028122;28;20452;-60
2023/02/06 09:31:00;;;;;;;22.80;11.03;;;3.50;99.90;;;;;;5033148;28;20567;-60
2023/02/06 09:33:29;;;;;;;32.30;10.63;;;3.50;99.90;;;;;;5046613;28;20493;-60
2023/02/06 09:36:04;;;;;;;33.90;12.53;;;3.60;99.90;;;;;;5042103;28;20473;-60
2023/02/06 09:38:32;;;;;;;31.97;11.13;;;3.70;99.90;;;;;;5034794;28;20984;-60
2023/02/06 09:41:03;;;;;;;29.23;11.43;;;3.80;99.90;;;;;;5034987;28;21038;-60
2023/02/06 09:43:34;;;;;;;25.90;11.17;;;3.80;99.90;;;;;;5034272;28;20480;-60
2023/02/06 09:46:06;;;;;;;28.63;11.60;;;3.70;99.90;;;;;;5034863;28;20463;-60
2023/02/06 09:48:38;;;;;;;33.13;12.10;;;3.70;99.90;;;;;;5034493;28;20480;-60
2023/02/06 09:51:14;;;;;;;32.47;11.97;;;3.80;99.90;;;;;;5034759;28;20815;-60
2023/02/06 09:53:50;;;;;;;33.83;11.37;;;3.90;99.90;;;;;;5033406;28;20980;-60
2023/02/06 09:56:29;;;;;;;26.00;11.10;;;3.70;99.90;;;;;;5027343;28;20472;-60
2023/02/06 09:59:04;;;;;;;25.80;11.00;;;3.60;99.90;;;;;;5034215;28;20490;-60
2023/02/06 10:01:39;;;;;;;27.07;10.33;;;3.60;99.90;;;;;;5037834;28;20467;-60
2023/02/06 10:04:30;;;;;;;28.83;10.93;;;3.70;99.90;;;;;;5020636;28;20593;-61
2023/02/06 10:07:07;;;;;;;24.17;9.77;;;3.70;99.90;;;;;;5047932;28;20515;-60
2023/02/06 10:09:41;;;;;;;33.90;10.87;;;3.70;99.90;;;;;;5053824;28;20466;-60
2023/02/06 10:12:14;;;;;;;22.47;10.03;;;3.70;99.90;;;;;;5054313;28;20466;-60
2023/02/06 10:14:48;;;;;;;22.43;9.37;;;3.60;99.90;;;;;;5054086;28;20969;-60
2023/02/06 10:17:22;;;;;;;23.97;10.30;;;3.70;99.90;;;;;;5053818;28;20471;-60
2023/02/06 10:19:56;;;;;;;21.60;9.13;;;3.80;99.90;;;;;;5049910;28;20878;-60
2023/02/06 10:22:31;;;;;;;23.13;9.47;;;4.00;99.90;;;;;;5053861;28;20467;-61
2023/02/06 10:25:16;;;;;;;30.97;10.03;;;3.90;99.90;;;;;;5054025;28;20522;-60
2023/02/06 10:27:47;;;;;;;21.77;9.43;;;3.80;99.90;;;;;;5052738;28;20473;-60
2023/02/06 10:30:19;;;;;;;21.40;10.37;;;3.90;99.90;;;;;;5043770;28;20562;-60
2023/02/06 10:32:56;;;;;;;26.83;11.13;;;4.10;99.90;;;;;;5028849;28;20993;-61
2023/02/06 10:35:44;;;;;;;21.10;10.57;;;4.10;99.90;;;;;;5033459;28;20457;-60
2023/02/06 10:38:47;;;;;;;25.97;10.90;;;4.00;99.90;;;;;;5026157;28;20493;-60
2023/02/06 10:41:24;;;;;;;28.73;11.53;;;4.00;99.90;;;;;;5014479;28;20488;-60
2023/02/06 10:43:57;;;;;;;26.00;11.57;;;3.90;99.90;;;;;;5033254;28;20482;-60
2023/02/06 10:46:40;;;;;;;25.33;12.03;;;3.80;99.90;;;;;;5032085;28;21032;-60
2023/02/06 10:49:17;;;;;;;28.80;10.80;;;3.70;99.90;;;;;;5033691;28;20958;-60
2023/02/06 10:51:48;;;;;;;29.23;13.33;;;3.80;99.90;;;;;;5033191;28;20513;-60
2023/02/06 10:54:19;;;;;;;29.23;11.83;;;4.00;99.90;;;;;;5033629;28;20815;-60
2023/02/06 10:56:50;;;;;;;31.17;12.27;;;4.00;99.90;;;;;;5032134;28;20962;-60
2023/02/06 10:59:26;;;;;;;35.00;13.17;;;3.90;99.90;;;;;;5024422;28;20491;-58
2023/02/06 11:02:13;;;;;;;28.73;12.17;;;3.90;99.90;;;;;;5021231;28;20475;-58
2023/02/06 11:04:47;;;;;;;33.80;12.30;;;3.80;99.90;;;;;;5024237;28;20463;-58
2023/02/06 11:07:23;;;;;;;32.23;12.73;;;3.90;99.90;;;;;;5026301;28;20953;-58
2023/02/06 11:09:52;;;;;;;33.07;13.90;;;3.90;99.90;;;;;;5031617;28;20483;-57
2023/02/06 11:12:30;;;;;;;33.67;14.30;;;4.10;99.90;;;;;;5032964;28;20461;-58
2023/02/06 11:15:02;;;;;;;32.40;15.07;;;4.00;99.90;;;;;;5013213;28;20963;-57
2023/02/06 11:17:32;;;;;;;33.10;14.60;;;4.20;99.90;;;;;;5024808;28;20471;-58
2023/02/06 11:20:15;;;;;;;38.87;15.30;;;4.20;99.90;;;;;;5012952;28;20487;-58
2023/02/06 11:22:43;;;;;;;31.43;13.70;;;4.20;99.90;;;;;;5015301;28;20558;-58
2023/02/06 11:25:25;;;;;;;31.03;14.30;;;4.10;99.90;;;;;;5022343;28;20467;-57
2023/02/06 11:27:53;;;;;;;30.27;14.00;;;4.20;99.90;;;;;;5024130;28;20473;-58
2023/02/06 11:30:35;;;;;;;30.07;14.03;;;4.20;99.90;;;;;;5012568;28;20470;-58
2023/02/06 11:33:08;;;;;;;33.40;14.50;;;4.20;99.90;;;;;;5030073;28;20466;-58
2023/02/06 11:35:40;;;;;;;25.47;12.37;;;4.20;99.90;;;;;;5032328;28;20463;-58
2023/02/06 11:38:15;;;;;;;31.40;14.07;;;4.30;99.90;;;;;;5032615;28;20969;-57
2023/02/06 11:40:53;;;;;;;25.80;12.47;;;4.40;99.90;;;;;;5032576;28;20462;-57
2023/02/06 11:43:23;;;;;;;24.37;11.73;;;4.30;99.90;;;;;;5020034;28;20494;-58
2023/02/06 11:46:13;;;;;;;30.63;12.20;;;4.40;99.90;;;;;;5020508;28;20821;-58
2023/02/06 11:48:45;;;;;;;31.77;13.30;;;4.60;99.90;;;;;;5032198;28;20470;-58
2023/02/06 11:51:14;;;;;;;25.10;13.23;;;4.70;99.90;;;;;;5032643;28;20558;-58
2023/02/06 11:53:56;;;;;;;24.13;11.70;;;4.60;99.90;;;;;;5032677;28;20963;-57
2023/02/06 11:56:25;;;;;;;24.47;12.47;;;4.50;99.90;;;;;;5027172;28;20475;-58
2023/02/06 11:59:03;;;;;;;23.57;12.70;;;4.40;99.90;;;;;;5012586;28;20492;-57
2023/02/06 12:01:41;;;;;;;25.60;13.43;;;4.40;99.90;;;;;;5019277;28;20486;-57
2023/02/06 12:04:22;;;;;;;27.57;11.67;;;4.60;99.90;;;;;;5021601;28;20813;-58
2023/02/06 12:06:54;;;;;;;29.70;13.73;;;4.70;99.90;;;;;;5024319;28;20476;-58
2023/02/06 12:09:22;;;;;;;24.97;13.27;;;4.60;99.90;;;;;;5024057;28;20470;-57
2023/02/06 12:11:56;;;;;;;25.97;12.77;;;4.50;99.90;;;;;;5023267;28;20470;-57
2023/02/06 12:14:30;;;;;;;24.63;13.30;;;4.60;99.90;;;;;;5022762;28;20468;-58
2023/02/06 12:17:00;;;;;;;28.27;13.40;;;4.70;99.90;;;;;;5022222;28;20475;-57
2023/02/06 12:19:32;;;;;;;25.87;12.10;;;4.90;99.90;;;;;;5020671;28;20483;-58
2023/02/06 12:22:05;;;;;;;22.47;12.33;;;5.20;99.90;;;;;;5022054;28;20922;-58
2023/02/06 12:24:38;;;;;;;25.17;13.67;;;5.20;99.90;;;;;;5021251;28;20228;-58
2023/02/06 12:27:19;;;;;;;24.40;13.23;;;5.10;99.90;;;;;;5021117;28;20478;-58
2023/02/06 12:29:55;;;;;;;26.00;14.20;;;5.00;99.90;;;;;;5015400;28;20467;-57
2023/02/06 12:32:28;;;;;;;22.80;14.17;;;4.90;99.90;;;;;;5025759;28;20238;-57
2023/02/06 12:35:01;;;;;;;28.63;13.90;;;4.80;99.90;;;;;;5025129;28;20246;-58
2023/02/06 12:37:38;;;;;;;26.17;15.47;;;4.90;99.90;;;;;;5029425;28;20477;-57
2023/02/06 12:40:19;;;;;;;21.40;12.87;;;4.90;99.90;;;;;;5031554;28;21070;-57
2023/02/06 12:42:54;;;;;;;24.97;14.20;;;4.90;99.90;;;;;;5027809;28;20471;-58
2023/02/06 12:45:32;;;;;;;26.37;13.73;;;5.10;99.90;;;;;;5031864;28;20477;-57
2023/02/06 12:48:06;;;;;;;29.23;15.70;;;5.30;99.90;;;;;;5017786;28;20459;-57
2023/02/06 12:50:42;;;;;;;31.07;16.03;;;5.20;99.90;;;;;;5022153;28;20722;-57
2023/02/06 12:53:17;;;;;;;26.40;14.27;;;5.00;99.90;;;;;;5025170;28;21043;-57
2023/02/06 12:55:52;;;;;;;24.63;13.00;;;4.90;99.90;;;;;;5025603;28;20830;-58
2023/02/06 12:58:27;;;;;;;24.53;13.33;;;4.90;99.90;;;;;;5024213;28;20454;-57
2023/02/06 13:01:22;;;;;;;23.67;12.80;;;5.20;99.90;;;;;;5025574;28;20993;-57
2023/02/06 13:04:01;;;;;;;26.53;12.60;;;5.20;99.90;;;;;;5031619;28;20502;-58
2023/02/06 13:06:39;;;;;;;22.57;11.97;;;5.00;99.90;;;;;;5023921;28;20506;-58